sensor_id;sensor_type;location;lat;lon;timestamp;P1;durP1;ratioP1;P2;durP2;ratioP2
41201;SDS011;26936;50.524;8.684;2024-03-08T00:01:39;28.08;;;14.48;;
41201;SDS011;26936;50.524;8.684;2024-03-08T00:04:04;28.08;;;15.38;;
41201;SDS011;26936;50.524;8.684;2024-03-08T00:06:31;25.42;;;13.35;;
41201;SDS011;26936;50.524;8.684;2024-03-08T00:08:56;30.77;;;14.45;;
41201;SDS011;26936;50.524;8.684;2024-03-08T00:11:21;28.73;;;13.20;;
41201;SDS011;26936;50.524;8.684;2024-03-08T00:13:47;23.88;;;13.15;;
41201;SDS011;26936;50.524;8.684;2024-03-08T00:16:12;27.27;;;14.45;;
41201;SDS011;26936;50.524;8.684;2024-03-08T00:18:37;27.77;;;14.50;;
41201;SDS011;26936;50.524;8.684;2024-03-08T00:21:02;26.20;;;14.50;;
41201;SDS011;26936;50.524;8.684;2024-03-08T00:23:28;23.63;;;13.75;;
41201;SDS011;26936;50.524;8.684;2024-03-08T00:25:53;28.48;;;14.55;;
41201;SDS011;26936;50.524;8.684;2024-03-08T00:28:20;26.77;;;14.32;;
41201;SDS011;26936;50.524;8.684;2024-03-08T00:30:46;32.22;;;15.70;;
41201;SDS011;26936;50.524;8.684;2024-03-08T00:33:11;31.52;;;15.48;;
41201;SDS011;26936;50.524;8.684;2024-03-08T00:35:37;28.95;;;14.43;;
41201;SDS011;26936;50.524;8.684;2024-03-08T00:38:02;28.25;;;14.30;;
41201;SDS011;26936;50.524;8.684;2024-03-08T00:40:27;30.65;;;13.85;;
41201;SDS011;26936;50.524;8.684;2024-03-08T00:42:53;25.50;;;13.55;;
41201;SDS011;26936;50.524;8.684;2024-03-08T00:45:19;28.05;;;14.23;;
41201;SDS011;26936;50.524;8.684;2024-03-08T00:47:44;27.85;;;14.15;;
41201;SDS011;26936;50.524;8.684;2024-03-08T00:50:10;28.80;;;14.30;;
41201;SDS011;26936;50.524;8.684;2024-03-08T00:52:36;29.52;;;14.10;;
41201;SDS011;26936;50.524;8.684;2024-03-08T00:55:02;27.35;;;13.55;;
41201;SDS011;26936;50.524;8.684;2024-03-08T00:57:27;25.35;;;13.98;;
41201;SDS011;26936;50.524;8.684;2024-03-08T00:59:53;31.30;;;16.23;;
41201;SDS011;26936;50.524;8.684;2024-03-08T01:02:18;31.80;;;15.27;;
41201;SDS011;26936;50.524;8.684;2024-03-08T01:04:44;28.95;;;15.18;;
41201;SDS011;26936;50.524;8.684;2024-03-08T01:07:09;30.02;;;14.68;;
41201;SDS011;26936;50.524;8.684;2024-03-08T01:09:35;32.30;;;15.82;;
41201;SDS011;26936;50.524;8.684;2024-03-08T01:12:01;25.60;;;14.27;;
41201;SDS011;26936;50.524;8.684;2024-03-08T01:14:26;31.73;;;16.05;;
41201;SDS011;26936;50.524;8.684;2024-03-08T01:16:51;28.92;;;15.05;;
41201;SDS011;26936;50.524;8.684;2024-03-08T01:19:17;31.23;;;16.30;;
41201;SDS011;26936;50.524;8.684;2024-03-08T01:21:42;30.10;;;15.60;;
41201;SDS011;26936;50.524;8.684;2024-03-08T01:24:08;25.88;;;13.80;;
41201;SDS011;26936;50.524;8.684;2024-03-08T01:26:33;30.35;;;14.95;;
41201;SDS011;26936;50.524;8.684;2024-03-08T01:29:02;31.95;;;15.38;;
41201;SDS011;26936;50.524;8.684;2024-03-08T01:31:28;33.13;;;15.50;;
41201;SDS011;26936;50.524;8.684;2024-03-08T01:33:54;29.83;;;14.95;;
41201;SDS011;26936;50.524;8.684;2024-03-08T01:36:20;30.42;;;15.75;;
41201;SDS011;26936;50.524;8.684;2024-03-08T01:38:46;29.70;;;15.20;;
41201;SDS011;26936;50.524;8.684;2024-03-08T01:41:11;29.97;;;15.30;;
41201;SDS011;26936;50.524;8.684;2024-03-08T01:43:37;32.15;;;15.80;;
41201;SDS011;26936;50.524;8.684;2024-03-08T01:46:03;32.72;;;16.20;;
41201;SDS011;26936;50.524;8.684;2024-03-08T01:48:30;29.85;;;15.43;;
41201;SDS011;26936;50.524;8.684;2024-03-08T01:50:56;30.85;;;14.68;;
41201;SDS011;26936;50.524;8.684;2024-03-08T01:53:23;28.52;;;15.07;;
41201;SDS011;26936;50.524;8.684;2024-03-08T01:55:49;30.27;;;15.85;;
41201;SDS011;26936;50.524;8.684;2024-03-08T01:58:16;28.05;;;14.73;;
41201;SDS011;26936;50.524;8.684;2024-03-08T02:00:45;29.65;;;14.68;;
41201;SDS011;26936;50.524;8.684;2024-03-08T02:03:14;31.88;;;15.80;;
41201;SDS011;26936;50.524;8.684;2024-03-08T02:05:42;27.73;;;15.20;;
41201;SDS011;26936;50.524;8.684;2024-03-08T02:08:11;30.60;;;15.43;;
41201;SDS011;26936;50.524;8.684;2024-03-08T02:10:40;33.78;;;16.67;;
41201;SDS011;26936;50.524;8.684;2024-03-08T02:13:08;31.35;;;15.95;;
41201;SDS011;26936;50.524;8.684;2024-03-08T02:18:20;34.50;;;15.93;;
41201;SDS011;26936;50.524;8.684;2024-03-08T02:20:52;30.63;;;15.13;;
41201;SDS011;26936;50.524;8.684;2024-03-08T02:23:19;29.50;;;15.80;;
41201;SDS011;26936;50.524;8.684;2024-03-08T02:25:45;33.33;;;16.45;;
41201;SDS011;26936;50.524;8.684;2024-03-08T02:28:11;31.15;;;14.57;;
41201;SDS011;26936;50.524;8.684;2024-03-08T02:30:37;32.08;;;15.73;;
41201;SDS011;26936;50.524;8.684;2024-03-08T02:33:03;33.83;;;16.98;;
41201;SDS011;26936;50.524;8.684;2024-03-08T02:35:29;29.92;;;15.02;;
41201;SDS011;26936;50.524;8.684;2024-03-08T02:37:54;30.42;;;15.52;;
41201;SDS011;26936;50.524;8.684;2024-03-08T02:40:19;32.07;;;16.10;;
41201;SDS011;26936;50.524;8.684;2024-03-08T02:42:44;34.45;;;16.77;;
41201;SDS011;26936;50.524;8.684;2024-03-08T02:45:10;32.05;;;16.40;;
41201;SDS011;26936;50.524;8.684;2024-03-08T02:47:35;31.73;;;16.17;;
41201;SDS011;26936;50.524;8.684;2024-03-08T02:50:01;30.50;;;14.30;;
41201;SDS011;26936;50.524;8.684;2024-03-08T02:52:26;28.33;;;14.95;;
41201;SDS011;26936;50.524;8.684;2024-03-08T02:54:52;32.38;;;15.20;;
41201;SDS011;26936;50.524;8.684;2024-03-08T02:57:17;31.97;;;16.03;;
41201;SDS011;26936;50.524;8.684;2024-03-08T02:59:43;32.00;;;15.43;;
41201;SDS011;26936;50.524;8.684;2024-03-08T03:02:08;31.27;;;15.73;;
41201;SDS011;26936;50.524;8.684;2024-03-08T03:04:35;30.13;;;15.52;;
41201;SDS011;26936;50.524;8.684;2024-03-08T03:07:00;35.05;;;16.42;;
41201;SDS011;26936;50.524;8.684;2024-03-08T03:09:26;30.42;;;15.48;;
41201;SDS011;26936;50.524;8.684;2024-03-08T03:11:53;31.70;;;16.00;;
41201;SDS011;26936;50.524;8.684;2024-03-08T03:14:20;35.08;;;16.75;;
41201;SDS011;26936;50.524;8.684;2024-03-08T03:16:46;32.65;;;16.80;;
41201;SDS011;26936;50.524;8.684;2024-03-08T03:19:11;32.72;;;16.00;;
41201;SDS011;26936;50.524;8.684;2024-03-08T03:21:37;30.08;;;16.15;;
41201;SDS011;26936;50.524;8.684;2024-03-08T03:24:03;30.33;;;15.30;;
41201;SDS011;26936;50.524;8.684;2024-03-08T03:26:29;32.72;;;15.73;;
41201;SDS011;26936;50.524;8.684;2024-03-08T03:28:56;34.92;;;16.63;;
41201;SDS011;26936;50.524;8.684;2024-03-08T03:31:22;34.67;;;16.20;;
41201;SDS011;26936;50.524;8.684;2024-03-08T03:33:49;35.17;;;17.33;;
41201;SDS011;26936;50.524;8.684;2024-03-08T03:36:16;35.65;;;15.65;;
41201;SDS011;26936;50.524;8.684;2024-03-08T03:38:42;33.75;;;16.85;;
41201;SDS011;26936;50.524;8.684;2024-03-08T03:41:08;29.50;;;14.98;;
41201;SDS011;26936;50.524;8.684;2024-03-08T03:43:35;31.25;;;15.02;;
41201;SDS011;26936;50.524;8.684;2024-03-08T03:46:05;32.15;;;15.82;;
41201;SDS011;26936;50.524;8.684;2024-03-08T03:48:31;35.80;;;17.38;;
41201;SDS011;26936;50.524;8.684;2024-03-08T03:50:57;33.17;;;16.75;;
41201;SDS011;26936;50.524;8.684;2024-03-08T03:53:22;34.35;;;17.20;;
41201;SDS011;26936;50.524;8.684;2024-03-08T03:55:47;33.67;;;16.10;;
41201;SDS011;26936;50.524;8.684;2024-03-08T03:58:12;33.38;;;17.20;;
41201;SDS011;26936;50.524;8.684;2024-03-08T04:00:38;35.85;;;17.85;;
41201;SDS011;26936;50.524;8.684;2024-03-08T04:03:04;33.90;;;18.67;;
41201;SDS011;26936;50.524;8.684;2024-03-08T04:05:29;37.63;;;17.10;;
41201;SDS011;26936;50.524;8.684;2024-03-08T04:07:56;34.92;;;16.55;;
41201;SDS011;26936;50.524;8.684;2024-03-08T04:10:21;34.50;;;16.63;;
41201;SDS011;26936;50.524;8.684;2024-03-08T04:12:47;33.05;;;16.55;;
41201;SDS011;26936;50.524;8.684;2024-03-08T04:15:12;37.55;;;17.42;;
41201;SDS011;26936;50.524;8.684;2024-03-08T04:17:38;32.28;;;16.65;;
41201;SDS011;26936;50.524;8.684;2024-03-08T04:20:04;35.20;;;17.63;;
41201;SDS011;26936;50.524;8.684;2024-03-08T04:22:35;35.00;;;17.42;;
41201;SDS011;26936;50.524;8.684;2024-03-08T04:25:01;38.78;;;18.35;;
41201;SDS011;26936;50.524;8.684;2024-03-08T04:27:27;35.47;;;18.02;;
41201;SDS011;26936;50.524;8.684;2024-03-08T04:29:52;34.78;;;18.33;;
41201;SDS011;26936;50.524;8.684;2024-03-08T04:32:17;36.50;;;18.00;;
41201;SDS011;26936;50.524;8.684;2024-03-08T04:34:43;37.77;;;18.27;;
41201;SDS011;26936;50.524;8.684;2024-03-08T04:37:09;40.38;;;18.90;;
41201;SDS011;26936;50.524;8.684;2024-03-08T04:39:38;34.53;;;16.88;;
41201;SDS011;26936;50.524;8.684;2024-03-08T04:42:04;33.80;;;16.40;;
41201;SDS011;26936;50.524;8.684;2024-03-08T04:44:31;38.90;;;17.45;;
41201;SDS011;26936;50.524;8.684;2024-03-08T04:46:58;33.15;;;16.38;;
41201;SDS011;26936;50.524;8.684;2024-03-08T04:49:23;34.22;;;16.88;;
41201;SDS011;26936;50.524;8.684;2024-03-08T04:51:49;35.90;;;17.83;;
41201;SDS011;26936;50.524;8.684;2024-03-08T04:54:14;38.80;;;17.08;;
41201;SDS011;26936;50.524;8.684;2024-03-08T04:56:39;30.15;;;15.73;;
41201;SDS011;26936;50.524;8.684;2024-03-08T04:59:05;34.42;;;17.00;;
41201;SDS011;26936;50.524;8.684;2024-03-08T05:01:33;34.75;;;16.85;;
41201;SDS011;26936;50.524;8.684;2024-03-08T05:03:58;33.70;;;15.90;;
41201;SDS011;26936;50.524;8.684;2024-03-08T05:06:24;33.47;;;16.90;;
41201;SDS011;26936;50.524;8.684;2024-03-08T05:08:49;34.50;;;17.77;;
41201;SDS011;26936;50.524;8.684;2024-03-08T05:11:14;37.22;;;17.30;;
41201;SDS011;26936;50.524;8.684;2024-03-08T05:13:40;36.22;;;18.42;;
41201;SDS011;26936;50.524;8.684;2024-03-08T05:16:06;36.20;;;16.83;;
41201;SDS011;26936;50.524;8.684;2024-03-08T05:18:32;38.05;;;17.67;;
41201;SDS011;26936;50.524;8.684;2024-03-08T05:20:58;35.78;;;16.92;;
41201;SDS011;26936;50.524;8.684;2024-03-08T05:23:23;33.60;;;17.00;;
41201;SDS011;26936;50.524;8.684;2024-03-08T05:25:49;36.85;;;18.02;;
41201;SDS011;26936;50.524;8.684;2024-03-08T05:28:15;39.10;;;19.05;;
41201;SDS011;26936;50.524;8.684;2024-03-08T05:30:40;37.60;;;18.63;;
41201;SDS011;26936;50.524;8.684;2024-03-08T05:33:06;39.13;;;18.65;;
41201;SDS011;26936;50.524;8.684;2024-03-08T05:35:35;38.17;;;18.92;;
41201;SDS011;26936;50.524;8.684;2024-03-08T05:38:01;38.25;;;18.40;;
41201;SDS011;26936;50.524;8.684;2024-03-08T05:40:26;42.35;;;18.77;;
41201;SDS011;26936;50.524;8.684;2024-03-08T05:42:52;36.10;;;17.30;;
41201;SDS011;26936;50.524;8.684;2024-03-08T05:45:17;35.50;;;16.80;;
41201;SDS011;26936;50.524;8.684;2024-03-08T05:47:42;41.42;;;18.30;;
41201;SDS011;26936;50.524;8.684;2024-03-08T05:50:08;39.58;;;18.33;;
41201;SDS011;26936;50.524;8.684;2024-03-08T05:52:35;40.75;;;18.40;;
41201;SDS011;26936;50.524;8.684;2024-03-08T05:55:01;39.58;;;19.02;;
41201;SDS011;26936;50.524;8.684;2024-03-08T05:57:27;39.35;;;18.27;;
41201;SDS011;26936;50.524;8.684;2024-03-08T05:59:53;37.38;;;18.45;;
41201;SDS011;26936;50.524;8.684;2024-03-08T06:02:18;37.05;;;18.35;;
41201;SDS011;26936;50.524;8.684;2024-03-08T06:04:45;38.83;;;19.25;;
41201;SDS011;26936;50.524;8.684;2024-03-08T06:07:12;40.30;;;19.27;;
41201;SDS011;26936;50.524;8.684;2024-03-08T06:09:37;39.65;;;19.30;;
41201;SDS011;26936;50.524;8.684;2024-03-08T06:12:03;37.78;;;19.13;;
41201;SDS011;26936;50.524;8.684;2024-03-08T06:14:29;40.15;;;18.85;;
41201;SDS011;26936;50.524;8.684;2024-03-08T06:16:55;36.40;;;17.92;;
41201;SDS011;26936;50.524;8.684;2024-03-08T06:19:20;39.25;;;17.75;;
41201;SDS011;26936;50.524;8.684;2024-03-08T06:21:45;39.00;;;18.73;;
41201;SDS011;26936;50.524;8.684;2024-03-08T06:24:10;44.70;;;20.38;;
41201;SDS011;26936;50.524;8.684;2024-03-08T06:26:36;39.97;;;19.13;;
41201;SDS011;26936;50.524;8.684;2024-03-08T06:29:02;40.28;;;19.15;;
41201;SDS011;26936;50.524;8.684;2024-03-08T06:31:31;40.67;;;18.80;;
41201;SDS011;26936;50.524;8.684;2024-03-08T06:33:56;40.75;;;20.65;;
41201;SDS011;26936;50.524;8.684;2024-03-08T06:36:22;40.20;;;19.13;;
41201;SDS011;26936;50.524;8.684;2024-03-08T06:38:48;37.83;;;18.92;;
41201;SDS011;26936;50.524;8.684;2024-03-08T06:41:14;41.25;;;19.20;;
41201;SDS011;26936;50.524;8.684;2024-03-08T06:43:46;41.08;;;19.63;;
41201;SDS011;26936;50.524;8.684;2024-03-08T06:46:14;35.25;;;18.25;;
41201;SDS011;26936;50.524;8.684;2024-03-08T06:48:40;36.28;;;18.23;;
41201;SDS011;26936;50.524;8.684;2024-03-08T06:51:05;35.93;;;18.23;;
41201;SDS011;26936;50.524;8.684;2024-03-08T06:53:31;39.00;;;19.35;;
41201;SDS011;26936;50.524;8.684;2024-03-08T06:55:56;42.83;;;20.40;;
41201;SDS011;26936;50.524;8.684;2024-03-08T06:58:22;37.90;;;19.05;;
41201;SDS011;26936;50.524;8.684;2024-03-08T07:00:48;42.13;;;19.58;;
41201;SDS011;26936;50.524;8.684;2024-03-08T07:03:16;42.97;;;19.73;;
41201;SDS011;26936;50.524;8.684;2024-03-08T07:05:42;40.63;;;19.50;;
41201;SDS011;26936;50.524;8.684;2024-03-08T07:08:07;48.30;;;23.00;;
41201;SDS011;26936;50.524;8.684;2024-03-08T07:10:32;44.85;;;22.45;;
41201;SDS011;26936;50.524;8.684;2024-03-08T07:12:59;50.05;;;22.70;;
41201;SDS011;26936;50.524;8.684;2024-03-08T07:15:27;43.88;;;19.80;;
41201;SDS011;26936;50.524;8.684;2024-03-08T07:17:53;47.97;;;22.02;;
41201;SDS011;26936;50.524;8.684;2024-03-08T07:20:19;46.70;;;22.35;;
41201;SDS011;26936;50.524;8.684;2024-03-08T07:22:44;40.83;;;20.52;;
41201;SDS011;26936;50.524;8.684;2024-03-08T07:25:15;42.63;;;20.92;;
41201;SDS011;26936;50.524;8.684;2024-03-08T07:27:51;39.10;;;19.23;;
41201;SDS011;26936;50.524;8.684;2024-03-08T07:30:20;38.20;;;19.27;;
41201;SDS011;26936;50.524;8.684;2024-03-08T07:33:08;40.33;;;20.23;;
41201;SDS011;26936;50.524;8.684;2024-03-08T07:35:36;40.47;;;19.98;;
41201;SDS011;26936;50.524;8.684;2024-03-08T07:38:03;39.40;;;19.67;;
41201;SDS011;26936;50.524;8.684;2024-03-08T07:40:30;44.85;;;20.02;;
41201;SDS011;26936;50.524;8.684;2024-03-08T07:42:55;36.78;;;18.58;;
41201;SDS011;26936;50.524;8.684;2024-03-08T07:45:21;40.25;;;18.42;;
41201;SDS011;26936;50.524;8.684;2024-03-08T07:47:47;39.60;;;19.35;;
41201;SDS011;26936;50.524;8.684;2024-03-08T07:50:12;38.45;;;19.58;;
41201;SDS011;26936;50.524;8.684;2024-03-08T07:52:41;43.30;;;20.38;;
41201;SDS011;26936;50.524;8.684;2024-03-08T07:55:06;41.15;;;20.10;;
41201;SDS011;26936;50.524;8.684;2024-03-08T07:57:33;43.83;;;20.88;;
41201;SDS011;26936;50.524;8.684;2024-03-08T07:59:58;42.17;;;18.83;;
41201;SDS011;26936;50.524;8.684;2024-03-08T08:02:23;38.30;;;20.30;;
41201;SDS011;26936;50.524;8.684;2024-03-08T08:04:49;35.58;;;17.42;;
41201;SDS011;26936;50.524;8.684;2024-03-08T08:07:14;39.10;;;18.70;;
41201;SDS011;26936;50.524;8.684;2024-03-08T08:09:39;39.57;;;18.37;;
41201;SDS011;26936;50.524;8.684;2024-03-08T08:12:07;41.25;;;20.02;;
41201;SDS011;26936;50.524;8.684;2024-03-08T08:14:37;36.03;;;17.52;;
41201;SDS011;26936;50.524;8.684;2024-03-08T08:17:06;38.88;;;18.45;;
41201;SDS011;26936;50.524;8.684;2024-03-08T08:19:33;35.60;;;17.98;;
41201;SDS011;26936;50.524;8.684;2024-03-08T08:22:00;35.00;;;16.40;;
41201;SDS011;26936;50.524;8.684;2024-03-08T08:24:26;33.03;;;16.38;;
41201;SDS011;26936;50.524;8.684;2024-03-08T08:26:52;32.07;;;14.97;;
41201;SDS011;26936;50.524;8.684;2024-03-08T08:29:17;34.10;;;16.10;;
41201;SDS011;26936;50.524;8.684;2024-03-08T08:31:43;29.92;;;15.85;;
41201;SDS011;26936;50.524;8.684;2024-03-08T08:34:11;30.17;;;15.37;;
41201;SDS011;26936;50.524;8.684;2024-03-08T08:36:37;32.00;;;14.95;;
41201;SDS011;26936;50.524;8.684;2024-03-08T08:39:03;29.67;;;15.35;;
41201;SDS011;26936;50.524;8.684;2024-03-08T08:41:30;31.88;;;15.85;;
41201;SDS011;26936;50.524;8.684;2024-03-08T08:43:55;31.63;;;15.75;;
41201;SDS011;26936;50.524;8.684;2024-03-08T08:46:20;31.33;;;14.27;;
41201;SDS011;26936;50.524;8.684;2024-03-08T08:48:46;28.58;;;14.93;;
41201;SDS011;26936;50.524;8.684;2024-03-08T08:51:12;28.63;;;14.80;;
41201;SDS011;26936;50.524;8.684;2024-03-08T08:53:38;28.20;;;14.35;;
41201;SDS011;26936;50.524;8.684;2024-03-08T08:56:08;30.30;;;14.68;;
41201;SDS011;26936;50.524;8.684;2024-03-08T08:58:38;30.77;;;15.52;;
41201;SDS011;26936;50.524;8.684;2024-03-08T09:01:09;31.50;;;14.63;;
41201;SDS011;26936;50.524;8.684;2024-03-08T09:03:35;25.90;;;13.60;;
41201;SDS011;26936;50.524;8.684;2024-03-08T09:06:06;28.48;;;13.63;;
41201;SDS011;26936;50.524;8.684;2024-03-08T09:08:34;28.25;;;14.65;;
41201;SDS011;26936;50.524;8.684;2024-03-08T09:11:03;26.85;;;13.98;;
41201;SDS011;26936;50.524;8.684;2024-03-08T09:13:29;29.83;;;14.45;;
41201;SDS011;26936;50.524;8.684;2024-03-08T09:15:54;24.17;;;13.48;;
41201;SDS011;26936;50.524;8.684;2024-03-08T09:18:19;26.97;;;14.33;;
41201;SDS011;26936;50.524;8.684;2024-03-08T09:20:45;26.97;;;14.27;;
41201;SDS011;26936;50.524;8.684;2024-03-08T09:23:10;28.20;;;14.50;;
41201;SDS011;26936;50.524;8.684;2024-03-08T09:25:35;29.52;;;14.77;;
41201;SDS011;26936;50.524;8.684;2024-03-08T09:28:01;22.58;;;13.15;;
41201;SDS011;26936;50.524;8.684;2024-03-08T09:30:26;24.60;;;13.10;;
41201;SDS011;26936;50.524;8.684;2024-03-08T09:32:51;25.88;;;13.98;;
41201;SDS011;26936;50.524;8.684;2024-03-08T09:35:17;24.10;;;13.20;;
41201;SDS011;26936;50.524;8.684;2024-03-08T09:37:42;29.63;;;13.52;;
41201;SDS011;26936;50.524;8.684;2024-03-08T09:40:08;25.00;;;13.20;;
41201;SDS011;26936;50.524;8.684;2024-03-08T09:42:40;23.27;;;12.35;;
41201;SDS011;26936;50.524;8.684;2024-03-08T09:45:08;24.35;;;13.05;;
41201;SDS011;26936;50.524;8.684;2024-03-08T09:47:43;23.83;;;13.07;;
41201;SDS011;26936;50.524;8.684;2024-03-08T09:50:10;27.80;;;13.27;;
41201;SDS011;26936;50.524;8.684;2024-03-08T09:52:40;22.88;;;12.80;;
41201;SDS011;26936;50.524;8.684;2024-03-08T09:55:06;28.02;;;12.40;;
41201;SDS011;26936;50.524;8.684;2024-03-08T09:57:32;24.38;;;12.52;;
41201;SDS011;26936;50.524;8.684;2024-03-08T09:59:58;19.77;;;10.48;;
41201;SDS011;26936;50.524;8.684;2024-03-08T10:02:24;21.95;;;11.40;;
41201;SDS011;26936;50.524;8.684;2024-03-08T10:04:50;19.83;;;10.93;;
41201;SDS011;26936;50.524;8.684;2024-03-08T10:07:18;21.60;;;10.93;;
41201;SDS011;26936;50.524;8.684;2024-03-08T10:09:43;21.67;;;11.25;;
41201;SDS011;26936;50.524;8.684;2024-03-08T10:12:15;21.48;;;11.60;;
41201;SDS011;26936;50.524;8.684;2024-03-08T10:14:41;19.20;;;10.95;;
41201;SDS011;26936;50.524;8.684;2024-03-08T10:17:07;21.00;;;11.38;;
41201;SDS011;26936;50.524;8.684;2024-03-08T10:19:32;20.60;;;10.93;;
41201;SDS011;26936;50.524;8.684;2024-03-08T10:21:57;21.80;;;11.15;;
41201;SDS011;26936;50.524;8.684;2024-03-08T10:24:23;22.77;;;11.07;;
41201;SDS011;26936;50.524;8.684;2024-03-08T10:26:51;22.77;;;11.80;;
41201;SDS011;26936;50.524;8.684;2024-03-08T10:29:29;21.17;;;10.88;;
41201;SDS011;26936;50.524;8.684;2024-03-08T10:31:55;18.42;;;10.43;;
41201;SDS011;26936;50.524;8.684;2024-03-08T10:34:21;19.45;;;10.88;;
41201;SDS011;26936;50.524;8.684;2024-03-08T10:36:48;21.27;;;10.95;;
41201;SDS011;26936;50.524;8.684;2024-03-08T10:39:22;16.98;;;9.90;;
41201;SDS011;26936;50.524;8.684;2024-03-08T10:41:51;19.75;;;10.35;;
41201;SDS011;26936;50.524;8.684;2024-03-08T10:44:53;18.13;;;10.02;;
41201;SDS011;26936;50.524;8.684;2024-03-08T10:47:23;16.95;;;8.98;;
41201;SDS011;26936;50.524;8.684;2024-03-08T10:49:54;16.95;;;9.73;;
41201;SDS011;26936;50.524;8.684;2024-03-08T10:52:29;18.25;;;10.02;;
41201;SDS011;26936;50.524;8.684;2024-03-08T10:54:54;16.90;;;9.10;;
41201;SDS011;26936;50.524;8.684;2024-03-08T10:57:22;17.05;;;8.68;;
41201;SDS011;26936;50.524;8.684;2024-03-08T10:59:49;16.58;;;9.02;;
41201;SDS011;26936;50.524;8.684;2024-03-08T11:02:15;17.52;;;9.63;;
41201;SDS011;26936;50.524;8.684;2024-03-08T11:04:45;18.70;;;9.10;;
41201;SDS011;26936;50.524;8.684;2024-03-08T11:07:14;16.97;;;9.37;;
41201;SDS011;26936;50.524;8.684;2024-03-08T11:09:43;15.65;;;9.30;;
41201;SDS011;26936;50.524;8.684;2024-03-08T11:14:50;18.60;;;9.30;;
41201;SDS011;26936;50.524;8.684;2024-03-08T11:17:20;17.02;;;8.73;;
41201;SDS011;26936;50.524;8.684;2024-03-08T11:19:50;17.70;;;8.55;;
41201;SDS011;26936;50.524;8.684;2024-03-08T11:22:23;16.60;;;8.90;;
41201;SDS011;26936;50.524;8.684;2024-03-08T11:24:52;15.75;;;9.07;;
41201;SDS011;26936;50.524;8.684;2024-03-08T11:27:18;13.93;;;8.00;;
41201;SDS011;26936;50.524;8.684;2024-03-08T11:29:46;14.65;;;8.20;;
41201;SDS011;26936;50.524;8.684;2024-03-08T11:32:27;16.83;;;9.10;;
41201;SDS011;26936;50.524;8.684;2024-03-08T11:34:53;15.93;;;9.32;;
41201;SDS011;26936;50.524;8.684;2024-03-08T11:37:19;16.73;;;9.10;;
41201;SDS011;26936;50.524;8.684;2024-03-08T11:39:46;15.25;;;8.35;;
41201;SDS011;26936;50.524;8.684;2024-03-08T11:42:12;15.95;;;8.77;;
41201;SDS011;26936;50.524;8.684;2024-03-08T11:44:37;13.60;;;8.52;;
41201;SDS011;26936;50.524;8.684;2024-03-08T11:47:08;15.07;;;8.50;;
41201;SDS011;26936;50.524;8.684;2024-03-08T11:49:35;17.85;;;8.50;;
41201;SDS011;26936;50.524;8.684;2024-03-08T11:52:00;15.05;;;8.52;;
41201;SDS011;26936;50.524;8.684;2024-03-08T11:54:26;17.63;;;8.98;;
41201;SDS011;26936;50.524;8.684;2024-03-08T11:56:52;14.13;;;7.75;;
41201;SDS011;26936;50.524;8.684;2024-03-08T11:59:17;14.93;;;7.63;;
41201;SDS011;26936;50.524;8.684;2024-03-08T12:01:43;15.52;;;8.05;;
41201;SDS011;26936;50.524;8.684;2024-03-08T12:04:11;14.73;;;8.48;;
41201;SDS011;26936;50.524;8.684;2024-03-08T12:06:43;14.95;;;8.50;;
41201;SDS011;26936;50.524;8.684;2024-03-08T12:09:23;15.55;;;9.15;;
41201;SDS011;26936;50.524;8.684;2024-03-08T12:12:27;16.58;;;9.30;;
41201;SDS011;26936;50.524;8.684;2024-03-08T12:15:04;15.63;;;8.85;;
41201;SDS011;26936;50.524;8.684;2024-03-08T12:17:32;18.55;;;9.35;;
41201;SDS011;26936;50.524;8.684;2024-03-08T12:20:03;16.40;;;9.02;;
41201;SDS011;26936;50.524;8.684;2024-03-08T12:22:56;15.90;;;8.85;;
41201;SDS011;26936;50.524;8.684;2024-03-08T12:25:42;16.37;;;8.60;;
41201;SDS011;26936;50.524;8.684;2024-03-08T12:28:11;15.82;;;8.68;;
41201;SDS011;26936;50.524;8.684;2024-03-08T12:30:48;17.27;;;9.32;;
41201;SDS011;26936;50.524;8.684;2024-03-08T12:33:15;14.80;;;8.88;;
41201;SDS011;26936;50.524;8.684;2024-03-08T12:35:41;15.68;;;9.25;;
41201;SDS011;26936;50.524;8.684;2024-03-08T12:38:23;16.33;;;9.18;;
41201;SDS011;26936;50.524;8.684;2024-03-08T12:40:55;19.30;;;10.07;;
41201;SDS011;26936;50.524;8.684;2024-03-08T12:43:22;19.13;;;10.20;;
41201;SDS011;26936;50.524;8.684;2024-03-08T12:45:47;18.60;;;10.00;;
41201;SDS011;26936;50.524;8.684;2024-03-08T12:48:12;16.98;;;9.68;;
41201;SDS011;26936;50.524;8.684;2024-03-08T12:50:42;14.48;;;9.13;;
41201;SDS011;26936;50.524;8.684;2024-03-08T12:53:10;16.70;;;9.70;;
41201;SDS011;26936;50.524;8.684;2024-03-08T12:55:36;16.83;;;10.07;;
41201;SDS011;26936;50.524;8.684;2024-03-08T12:58:01;17.60;;;10.27;;
41201;SDS011;26936;50.524;8.684;2024-03-08T13:00:27;18.05;;;10.05;;
41201;SDS011;26936;50.524;8.684;2024-03-08T13:02:53;15.68;;;9.63;;
41201;SDS011;26936;50.524;8.684;2024-03-08T13:05:18;16.65;;;9.63;;
41201;SDS011;26936;50.524;8.684;2024-03-08T13:07:44;15.45;;;9.40;;
41201;SDS011;26936;50.524;8.684;2024-03-08T13:10:11;18.70;;;10.23;;
41201;SDS011;26936;50.524;8.684;2024-03-08T13:12:40;17.52;;;10.80;;
41201;SDS011;26936;50.524;8.684;2024-03-08T13:15:09;18.52;;;10.23;;
41201;SDS011;26936;50.524;8.684;2024-03-08T13:17:44;19.30;;;10.48;;
41201;SDS011;26936;50.524;8.684;2024-03-08T13:20:11;15.65;;;10.18;;
41201;SDS011;26936;50.524;8.684;2024-03-08T13:22:41;18.48;;;10.27;;
41201;SDS011;26936;50.524;8.684;2024-03-08T13:25:07;16.55;;;9.77;;
41201;SDS011;26936;50.524;8.684;2024-03-08T13:27:38;18.90;;;9.80;;
41201;SDS011;26936;50.524;8.684;2024-03-08T13:30:04;18.50;;;10.13;;
41201;SDS011;26936;50.524;8.684;2024-03-08T13:32:31;15.48;;;9.75;;
41201;SDS011;26936;50.524;8.684;2024-03-08T13:34:57;19.83;;;9.98;;
41201;SDS011;26936;50.524;8.684;2024-03-08T13:37:22;16.90;;;9.77;;
41201;SDS011;26936;50.524;8.684;2024-03-08T13:39:47;17.92;;;10.27;;
41201;SDS011;26936;50.524;8.684;2024-03-08T13:42:13;16.87;;;10.77;;
41201;SDS011;26936;50.524;8.684;2024-03-08T13:44:43;18.50;;;10.32;;
41201;SDS011;26936;50.524;8.684;2024-03-08T13:47:08;17.77;;;10.75;;
41201;SDS011;26936;50.524;8.684;2024-03-08T13:49:34;18.77;;;10.57;;
41201;SDS011;26936;50.524;8.684;2024-03-08T13:51:59;18.27;;;10.40;;
41201;SDS011;26936;50.524;8.684;2024-03-08T13:54:25;17.45;;;10.57;;
41201;SDS011;26936;50.524;8.684;2024-03-08T13:56:52;17.77;;;10.60;;
41201;SDS011;26936;50.524;8.684;2024-03-08T13:59:19;16.77;;;10.55;;
41201;SDS011;26936;50.524;8.684;2024-03-08T14:01:47;18.50;;;11.18;;
41201;SDS011;26936;50.524;8.684;2024-03-08T14:04:13;18.02;;;10.32;;
41201;SDS011;26936;50.524;8.684;2024-03-08T14:06:39;15.57;;;9.80;;
41201;SDS011;26936;50.524;8.684;2024-03-08T14:09:04;16.10;;;9.77;;
41201;SDS011;26936;50.524;8.684;2024-03-08T14:11:32;19.10;;;10.85;;
41201;SDS011;26936;50.524;8.684;2024-03-08T14:13:58;18.48;;;10.65;;
41201;SDS011;26936;50.524;8.684;2024-03-08T14:16:23;15.63;;;10.57;;
41201;SDS011;26936;50.524;8.684;2024-03-08T14:18:48;17.30;;;10.60;;
41201;SDS011;26936;50.524;8.684;2024-03-08T14:21:14;16.60;;;10.00;;
41201;SDS011;26936;50.524;8.684;2024-03-08T14:23:41;18.25;;;11.13;;
41201;SDS011;26936;50.524;8.684;2024-03-08T14:26:07;15.90;;;10.20;;
41201;SDS011;26936;50.524;8.684;2024-03-08T14:28:32;17.25;;;10.63;;